createdAt,value
2022-11-14T00:00:52.351Z,39.30
2022-11-14T00:03:45.644Z,38.05
2022-11-14T00:06:35.030Z,36.15
2022-11-14T00:09:36.959Z,35.53
2022-11-14T00:12:27.211Z,40.05
2022-11-14T00:15:18.440Z,39.35
2022-11-14T00:18:08.856Z,39.10
2022-11-14T00:20:56.976Z,42.45
2022-11-14T00:23:47.538Z,40.03
2022-11-14T00:26:38.554Z,40.78
2022-11-14T00:29:31.215Z,40.70
2022-11-14T00:32:25.222Z,39.30
2022-11-14T00:35:15.101Z,73.72
2022-11-14T00:38:04.243Z,40.90
2022-11-14T00:40:54.295Z,67.78
2022-11-14T00:43:44.052Z,77.95
2022-11-14T00:46:39.137Z,66.05
2022-11-14T00:49:34.137Z,99.55
2022-11-14T00:55:11.289Z,46.17
2022-11-14T00:57:57.970Z,41.90
2022-11-14T01:00:48.948Z,41.17
2022-11-14T01:03:39.348Z,37.33
2022-11-14T01:06:28.825Z,43.42
2022-11-14T01:09:19.424Z,40.53
2022-11-14T01:12:09.028Z,41.53
2022-11-14T01:14:56.103Z,52.20
2022-11-14T01:17:47.145Z,41.80
2022-11-14T01:23:59.109Z,44.17
2022-11-14T01:26:47.371Z,43.85
2022-11-14T01:29:40.575Z,44.03
2022-11-14T01:32:31.661Z,41.92
2022-11-14T01:35:21.456Z,45.13
2022-11-14T01:38:16.831Z,45.40
2022-11-14T01:41:10.077Z,41.67
2022-11-14T01:43:57.030Z,43.88
2022-11-14T01:47:00.224Z,46.42
2022-11-14T01:49:51.271Z,46.30
2022-11-14T01:52:43.475Z,43.15
2022-11-14T01:55:38.051Z,38.22
2022-11-14T01:58:30.665Z,37.97
2022-11-14T02:04:36.730Z,42.22
2022-11-14T02:07:31.957Z,43.40
2022-11-14T02:10:23.902Z,41.38
2022-11-14T02:13:19.960Z,43.85
2022-11-14T02:16:08.813Z,42.45
2022-11-14T02:18:59.436Z,41.80
2022-11-14T02:21:47.715Z,43.50
2022-11-14T02:24:40.568Z,47.13
2022-11-14T02:27:35.817Z,49.55
2022-11-14T02:30:28.189Z,42.25
2022-11-14T02:33:19.847Z,44.75
2022-11-14T02:36:16.738Z,43.90
2022-11-14T02:39:06.588Z,43.67
2022-11-14T02:41:58.315Z,37.78
2022-11-14T02:44:47.233Z,45.60
2022-11-14T02:47:38.802Z,36.65
2022-11-14T02:50:30.047Z,38.45
2022-11-14T02:53:19.110Z,42.65
2022-11-14T02:56:11.095Z,43.17
2022-11-14T02:59:02.580Z,46.10
2022-11-14T03:01:51.860Z,45.55
2022-11-14T03:04:43.655Z,44.40
2022-11-14T03:07:35.564Z,49.85
2022-11-14T03:10:24.388Z,54.08
2022-11-14T03:13:18.506Z,50.08
2022-11-14T03:16:13.046Z,54.58
2022-11-14T03:19:02.415Z,51.83
2022-11-14T03:21:52.353Z,54.03
2022-11-14T03:24:41.249Z,48.22
2022-11-14T03:27:27.909Z,52.72
2022-11-14T03:30:17.982Z,56.70
2022-11-14T03:33:10.875Z,59.55
2022-11-14T03:36:00.311Z,57.47
2022-11-14T03:38:50.680Z,60.85
2022-11-14T03:41:45.773Z,62.75
2022-11-14T03:44:36.231Z,58.60
2022-11-14T03:47:24.151Z,58.28
2022-11-14T03:50:12.328Z,63.00
2022-11-14T03:53:01.759Z,56.78
2022-11-14T03:55:50.507Z,58.85
2022-11-14T03:58:41.937Z,69.15
2022-11-14T04:01:31.472Z,64.07
2022-11-14T04:04:22.390Z,64.15
2022-11-14T04:07:12.222Z,64.15
2022-11-14T04:10:01.716Z,66.50
2022-11-14T04:12:55.934Z,65.57
2022-11-14T04:18:48.636Z,68.95
2022-11-14T04:21:36.676Z,67.75
2022-11-14T04:24:23.941Z,68.00
2022-11-14T04:27:12.669Z,71.05
2022-11-14T04:30:02.421Z,70.18
2022-11-14T04:32:51.594Z,65.82
2022-11-14T04:35:41.635Z,65.47
2022-11-14T04:38:28.730Z,60.88
2022-11-14T04:41:17.744Z,59.95
2022-11-14T04:44:07.346Z,61.17
2022-11-14T04:46:57.411Z,59.80
2022-11-14T04:49:49.776Z,62.78
2022-11-14T04:52:38.617Z,57.88
2022-11-14T04:55:29.839Z,55.45
2022-11-14T04:58:18.904Z,56.80
2022-11-14T05:01:17.337Z,58.88
2022-11-14T05:04:05.214Z,61.80
2022-11-14T05:06:55.840Z,60.88
2022-11-14T05:09:45.099Z,66.40
2022-11-14T05:12:34.618Z,69.38
2022-11-14T05:15:24.644Z,64.18
2022-11-14T05:18:16.878Z,63.10
2022-11-14T05:21:04.771Z,59.95
2022-11-14T05:23:52.007Z,57.50
2022-11-14T05:26:42.634Z,60.35
2022-11-14T05:29:29.002Z,62.28
2022-11-14T05:32:22.515Z,62.60
2022-11-14T05:35:10.575Z,66.78
2022-11-14T05:38:04.799Z,64.40
2022-11-14T05:40:55.562Z,69.07
2022-11-14T05:43:46.051Z,61.05
2022-11-14T05:46:35.268Z,62.33
2022-11-14T05:49:24.668Z,60.92
2022-11-14T05:52:12.342Z,64.38
2022-11-14T05:55:03.962Z,59.95
2022-11-14T05:57:51.156Z,68.38
2022-11-14T06:00:50.755Z,62.38
2022-11-14T06:03:47.262Z,85.03
2022-11-14T06:06:34.116Z,92.93
2022-11-14T06:09:24.479Z,90.28
2022-11-14T06:12:13.411Z,84.03
2022-11-14T06:15:05.206Z,77.38
2022-11-14T06:18:04.866Z,82.95
2022-11-14T06:20:55.398Z,80.13
2022-11-14T06:23:44.583Z,71.22
2022-11-14T06:26:38.160Z,70.30
2022-11-14T06:29:32.645Z,67.18
2022-11-14T06:32:27.503Z,69.28
2022-11-14T06:35:18.258Z,71.30
2022-11-14T06:38:07.892Z,75.65
2022-11-14T06:41:18.168Z,74.68
2022-11-14T06:44:08.867Z,76.05
2022-11-14T06:46:59.394Z,79.88
2022-11-14T06:49:50.420Z,84.25
2022-11-14T06:52:37.642Z,75.78
2022-11-14T06:55:27.870Z,71.50
2022-11-14T06:58:38.774Z,71.30
2022-11-14T07:01:27.689Z,73.45
2022-11-14T07:04:15.471Z,71.47
2022-11-14T07:07:05.645Z,75.85
2022-11-14T07:09:55.365Z,76.97
2022-11-14T07:12:44.670Z,70.35
2022-11-14T07:15:35.463Z,73.90
2022-11-14T07:18:23.064Z,74.65
2022-11-14T07:21:13.905Z,71.68
2022-11-14T07:24:03.842Z,76.90
2022-11-14T07:26:50.882Z,77.35
2022-11-14T07:29:40.995Z,77.63
2022-11-14T07:32:28.132Z,82.13
2022-11-14T07:35:45.632Z,80.82
2022-11-14T07:38:35.728Z,86.38
2022-11-14T07:41:25.817Z,80.30
2022-11-14T07:44:13.447Z,86.45
2022-11-14T07:47:01.581Z,86.00
2022-11-14T07:49:51.941Z,92.70
2022-11-14T07:52:41.510Z,84.03
2022-11-14T07:55:30.575Z,81.13
2022-11-14T07:58:20.648Z,86.53
2022-11-14T08:01:12.317Z,82.18
2022-11-14T08:04:00.074Z,71.78
2022-11-14T08:06:49.808Z,90.57
2022-11-14T08:09:40.950Z,76.88
2022-11-14T08:12:31.355Z,70.63
2022-11-14T08:18:23.689Z,71.28
2022-11-14T08:21:14.996Z,73.05
2022-11-14T08:24:04.563Z,70.22
2022-11-14T08:26:54.219Z,72.75
2022-11-14T08:29:42.558Z,73.28
2022-11-14T08:32:33.730Z,79.38
2022-11-14T08:35:24.953Z,67.63
2022-11-14T08:38:12.994Z,80.88
2022-11-14T08:41:04.205Z,72.32
2022-11-14T08:43:53.907Z,73.25
2022-11-14T08:49:48.751Z,77.35
2022-11-14T08:52:36.567Z,73.55
2022-11-14T08:55:27.383Z,80.18
2022-11-14T08:58:14.855Z,78.47
2022-11-14T09:01:08.219Z,75.25
2022-11-14T09:04:00.006Z,75.40
2022-11-14T09:06:50.623Z,70.75
2022-11-14T09:09:42.829Z,75.03
2022-11-14T09:12:31.568Z,87.90
2022-11-14T09:15:22.564Z,74.72
2022-11-14T09:18:13.702Z,74.60
2022-11-14T09:21:09.353Z,72.18
2022-11-14T09:24:01.883Z,71.43
2022-11-14T09:26:57.152Z,74.57
2022-11-14T09:29:44.845Z,75.88
2022-11-14T09:32:37.862Z,75.63
2022-11-14T09:35:26.840Z,76.22
2022-11-14T09:38:15.660Z,74.90
2022-11-14T09:41:36.167Z,79.97
2022-11-14T09:44:58.392Z,79.35
2022-11-14T09:48:10.233Z,75.22
2022-11-14T09:51:23.780Z,72.65
2022-11-14T09:54:27.894Z,71.43
2022-11-14T09:57:18.790Z,70.78
2022-11-14T10:00:25.122Z,76.22
2022-11-14T10:03:30.322Z,76.70
2022-11-14T10:06:36.439Z,76.13
2022-11-14T10:09:34.865Z,77.30
2022-11-14T10:12:36.483Z,74.18
2022-11-14T10:16:00.951Z,74.40
2022-11-14T10:19:02.402Z,79.65
2022-11-14T10:22:23.274Z,76.40
2022-11-14T10:25:42.626Z,78.20
2022-11-14T10:29:13.240Z,84.78
2022-11-14T10:33:00.406Z,73.78
2022-11-14T10:36:05.341Z,82.85
2022-11-14T10:39:08.310Z,81.22
2022-11-14T10:42:09.570Z,80.43
2022-11-14T10:45:26.009Z,76.10
2022-11-14T10:48:31.873Z,80.60
2022-11-14T10:51:46.773Z,71.05
2022-11-14T10:54:53.183Z,78.70
2022-11-14T10:57:40.703Z,86.47
2022-11-14T11:00:27.489Z,74.15
2022-11-14T11:03:17.578Z,72.03
2022-11-14T11:06:27.955Z,71.40
2022-11-14T11:09:53.158Z,71.90
2022-11-14T11:12:55.648Z,66.00
2022-11-14T11:15:44.697Z,78.93
2022-11-14T11:18:39.662Z,70.22
2022-11-14T11:21:29.011Z,70.68
2022-11-14T11:24:40.540Z,66.88
2022-11-14T11:27:31.789Z,64.55
2022-11-14T11:30:23.513Z,64.53
2022-11-14T11:33:30.967Z,66.57
2022-11-14T11:36:23.274Z,67.15
2022-11-14T11:39:27.598Z,61.88
2022-11-14T11:43:23.816Z,61.20
2022-11-14T11:45:54.085Z,59.03
2022-11-14T11:48:47.448Z,58.83
2022-11-14T11:51:46.892Z,54.10
2022-11-14T11:54:54.662Z,56.17
2022-11-14T11:58:07.947Z,49.50
2022-11-14T12:00:57.940Z,49.75
2022-11-14T12:03:50.570Z,46.15
2022-11-14T12:07:03.740Z,87.97
2022-11-14T12:10:11.400Z,50.53
2022-11-14T12:13:37.155Z,41.92
2022-11-14T12:16:49.042Z,64.47
2022-11-14T12:19:59.332Z,43.65
2022-11-14T12:23:07.712Z,49.28
2022-11-14T12:26:14.617Z,43.42
2022-11-14T12:29:29.282Z,42.35
2022-11-14T12:32:35.390Z,35.38
2022-11-14T12:35:34.559Z,44.40
2022-11-14T12:38:25.583Z,32.35
2022-11-14T12:41:19.193Z,37.13
2022-11-14T12:44:33.193Z,37.05
2022-11-14T12:47:27.770Z,35.65
2022-11-14T12:50:51.620Z,28.38
2022-11-14T12:53:45.618Z,24.25
2022-11-14T12:56:37.896Z,19.95
2022-11-14T12:59:59.055Z,20.20
2022-11-14T13:03:06.545Z,18.15
2022-11-14T13:06:31.422Z,17.33
2022-11-14T13:09:54.073Z,17.13
2022-11-14T13:13:27.225Z,15.05
2022-11-14T13:16:48.554Z,15.30
2022-11-14T13:19:55.227Z,14.63
2022-11-14T13:22:49.655Z,15.05
2022-11-14T13:28:38.652Z,12.95
2022-11-14T13:31:47.943Z,12.63
2022-11-14T13:34:49.364Z,13.50
2022-11-14T13:38:08.670Z,13.02
2022-11-14T13:41:48.354Z,15.50
2022-11-14T13:44:53.688Z,14.40
2022-11-14T13:48:12.700Z,14.68
2022-11-14T13:51:41.222Z,14.38
2022-11-14T13:54:21.444Z,18.17
2022-11-14T13:57:34.007Z,17.75
2022-11-14T14:00:25.003Z,22.55
2022-11-14T14:03:46.214Z,19.48
2022-11-14T14:07:16.659Z,19.27
2022-11-14T14:10:20.102Z,17.15
2022-11-14T14:13:29.738Z,16.30
2022-11-14T14:16:36.280Z,18.42
2022-11-14T14:19:32.757Z,17.60
2022-11-14T14:22:31.294Z,16.30
2022-11-14T14:25:42.376Z,15.23
2022-11-14T14:29:26.937Z,19.58
2022-11-14T14:32:18.095Z,16.20
2022-11-14T14:35:31.871Z,19.88
2022-11-14T14:38:28.313Z,19.27
2022-11-14T14:41:22.076Z,24.88
2022-11-14T14:44:36.039Z,21.58
2022-11-14T14:47:43.589Z,21.37
2022-11-14T14:50:46.992Z,23.58
2022-11-14T14:53:36.722Z,25.35
2022-11-14T14:56:29.055Z,20.02
2022-11-14T14:59:20.706Z,24.05
2022-11-14T15:02:17.444Z,25.13
2022-11-14T15:05:09.448Z,26.80
2022-11-14T15:08:00.726Z,30.33
2022-11-14T15:10:50.144Z,23.95
2022-11-14T15:13:38.889Z,31.02
2022-11-14T15:16:53.243Z,26.98
2022-11-14T15:19:43.355Z,26.67
2022-11-14T15:22:35.131Z,26.23
2022-11-14T15:25:23.159Z,28.45
2022-11-14T15:28:25.443Z,35.38
2022-11-14T15:31:35.955Z,25.17
2022-11-14T15:34:42.801Z,28.90
2022-11-14T15:40:41.116Z,31.83
2022-11-14T15:44:09.678Z,29.45
2022-11-14T15:47:00.235Z,29.73
2022-11-14T15:50:15.590Z,28.52
2022-11-14T15:53:26.533Z,29.95
2022-11-14T15:56:17.135Z,28.42
2022-11-14T15:59:11.133Z,26.98
2022-11-14T16:02:12.940Z,30.38
2022-11-14T16:05:00.992Z,28.48
2022-11-14T16:07:47.741Z,29.33
2022-11-14T16:10:34.967Z,30.15
2022-11-14T16:13:24.415Z,28.02
2022-11-14T16:16:14.568Z,30.70
2022-11-14T16:19:03.163Z,28.40
2022-11-14T16:21:55.356Z,29.63
2022-11-14T16:24:46.238Z,33.38
2022-11-14T16:27:33.795Z,31.23
2022-11-14T16:30:24.402Z,30.02
2022-11-14T16:33:13.255Z,31.00
2022-11-14T16:35:59.780Z,34.13
2022-11-14T16:38:52.566Z,35.47
2022-11-14T16:41:46.730Z,38.58
2022-11-14T16:44:41.167Z,34.22
2022-11-14T16:47:36.390Z,31.65
2022-11-14T16:50:27.439Z,32.05
2022-11-14T16:53:15.028Z,32.58
2022-11-14T16:56:04.914Z,32.95
2022-11-14T16:58:59.378Z,29.08
2022-11-14T17:02:10.186Z,35.63
2022-11-14T17:05:00.190Z,30.63
2022-11-14T17:07:49.132Z,28.13
2022-11-14T17:10:42.061Z,29.83
2022-11-14T17:13:32.704Z,31.20
2022-11-14T17:16:27.744Z,38.35
2022-11-14T17:19:19.484Z,29.77
2022-11-14T17:22:09.494Z,29.25
2022-11-14T17:24:58.393Z,27.27
2022-11-14T17:27:54.245Z,29.52
2022-11-14T17:30:42.621Z,28.83
2022-11-14T17:33:33.344Z,41.45
2022-11-14T17:36:33.899Z,32.58
2022-11-14T17:39:25.606Z,34.03
2022-11-14T17:42:14.663Z,30.55
2022-11-14T17:45:02.023Z,32.30
2022-11-14T17:47:51.763Z,33.88
2022-11-14T17:50:44.383Z,30.70
2022-11-14T17:53:34.760Z,32.80
2022-11-14T17:56:28.184Z,33.97
2022-11-14T17:59:15.475Z,30.35
2022-11-14T18:02:04.542Z,29.42
2022-11-14T18:04:53.955Z,33.97
2022-11-14T18:07:41.891Z,39.60
2022-11-14T18:10:32.566Z,36.83
2022-11-14T18:13:24.461Z,36.35
2022-11-14T18:16:19.920Z,32.58
2022-11-14T18:19:06.673Z,32.38
2022-11-14T18:22:15.104Z,35.00
2022-11-14T18:25:07.885Z,35.88
2022-11-14T18:27:55.892Z,37.75
2022-11-14T18:30:55.037Z,39.78
2022-11-14T18:33:44.908Z,35.25
2022-11-14T18:36:34.435Z,37.75
2022-11-14T18:39:22.403Z,35.03
2022-11-14T18:42:12.319Z,37.55
2022-11-14T18:44:58.981Z,40.35
2022-11-14T18:47:47.362Z,42.28
2022-11-14T18:50:39.656Z,41.95
2022-11-14T18:53:36.108Z,42.65
2022-11-14T18:56:28.557Z,37.22
2022-11-14T18:59:20.644Z,43.28
2022-11-14T19:02:09.314Z,38.65
2022-11-14T19:04:59.712Z,39.15
2022-11-14T19:07:52.181Z,40.13
2022-11-14T19:10:39.015Z,40.38
2022-11-14T19:13:31.213Z,39.45
2022-11-14T19:16:19.513Z,40.83
2022-11-14T19:19:11.086Z,40.10
2022-11-14T19:22:00.626Z,37.90
2022-11-14T19:24:49.837Z,46.25
2022-11-14T19:27:43.425Z,42.80
2022-11-14T19:30:34.241Z,39.00
2022-11-14T19:33:23.732Z,40.33
2022-11-14T19:36:57.636Z,48.38
2022-11-14T19:39:35.172Z,46.08
2022-11-14T19:45:27.239Z,46.40
2022-11-14T19:48:20.524Z,43.60
2022-11-14T19:51:22.919Z,39.90
2022-11-14T19:57:15.677Z,39.80
2022-11-14T20:00:07.740Z,42.60
2022-11-14T20:02:57.491Z,43.08
2022-11-14T20:05:58.515Z,46.70
2022-11-14T20:08:49.848Z,41.65
2022-11-14T20:11:39.882Z,36.35
2022-11-14T20:14:28.334Z,39.85
2022-11-14T20:17:21.705Z,35.15
2022-11-14T20:20:12.154Z,35.80
2022-11-14T20:23:01.404Z,31.58
2022-11-14T20:25:55.380Z,35.30
2022-11-14T20:28:47.923Z,40.45
2022-11-14T20:31:37.371Z,34.47
2022-11-14T20:34:27.102Z,38.28
2022-11-14T20:37:14.282Z,36.70
2022-11-14T20:40:05.585Z,37.92
2022-11-14T20:42:54.538Z,31.67
2022-11-14T20:45:44.967Z,36.65
2022-11-14T20:48:36.221Z,49.55
2022-11-14T20:54:29.549Z,30.98
2022-11-14T20:57:17.654Z,44.03
2022-11-14T21:00:12.298Z,44.08
2022-11-14T21:03:03.184Z,35.38
2022-11-14T21:05:56.615Z,37.78
2022-11-14T21:08:46.734Z,28.00
2022-11-14T21:11:36.133Z,30.58
2022-11-14T21:14:25.766Z,29.98
2022-11-14T21:17:13.072Z,29.67
2022-11-14T21:20:03.602Z,26.48
2022-11-14T21:22:56.365Z,30.58
2022-11-14T21:25:43.775Z,22.55
2022-11-14T21:28:32.936Z,21.73
2022-11-14T21:31:36.151Z,26.60
2022-11-14T21:34:25.700Z,30.95
2022-11-14T21:37:15.392Z,24.92
2022-11-14T21:40:04.988Z,27.80
2022-11-14T21:42:59.691Z,26.95
2022-11-14T21:46:15.028Z,24.17
2022-11-14T21:49:08.749Z,24.23
2022-11-14T21:51:59.911Z,23.95
2022-11-14T21:54:54.750Z,29.00
2022-11-14T21:57:43.482Z,22.70
2022-11-14T22:00:38.909Z,26.98
2022-11-14T22:03:46.744Z,26.40
2022-11-14T22:06:36.828Z,22.58
2022-11-14T22:09:31.151Z,32.17
2022-11-14T22:12:20.016Z,24.90
2022-11-14T22:15:10.261Z,23.52
2022-11-14T22:17:57.414Z,22.90
2022-11-14T22:20:58.970Z,29.90
2022-11-14T22:23:54.026Z,21.23
2022-11-14T22:26:44.699Z,23.55
2022-11-14T22:29:33.291Z,27.00
2022-11-14T22:32:24.911Z,29.27
2022-11-14T22:35:15.714Z,24.08
2022-11-14T22:38:02.198Z,23.67
2022-11-14T22:40:52.878Z,26.60
2022-11-14T22:43:41.567Z,25.35
2022-11-14T22:46:50.991Z,27.33
2022-11-14T22:49:41.598Z,27.77
2022-11-14T22:52:33.765Z,35.58
2022-11-14T22:55:24.572Z,26.17
2022-11-14T22:58:21.446Z,26.20
2022-11-14T23:01:13.427Z,27.83
2022-11-14T23:04:06.590Z,35.60
2022-11-14T23:06:58.486Z,24.95
2022-11-14T23:09:46.892Z,32.30
2022-11-14T23:12:35.375Z,27.73
2022-11-14T23:15:26.595Z,43.03
2022-11-14T23:18:15.780Z,28.13
2022-11-14T23:21:13.278Z,33.17
2022-11-14T23:24:06.558Z,36.05
2022-11-14T23:26:56.994Z,32.17
2022-11-14T23:29:45.252Z,32.55
2022-11-14T23:32:36.159Z,30.15
2022-11-14T23:35:26.675Z,33.15
2022-11-14T23:38:17.219Z,35.90
2022-11-14T23:41:08.986Z,35.10
2022-11-14T23:43:59.480Z,31.90
2022-11-14T23:46:49.034Z,37.58
2022-11-14T23:49:38.649Z,36.88
2022-11-14T23:52:31.007Z,32.17
2022-11-14T23:55:21.430Z,35.08
2022-11-14T23:58:11.853Z,34.35
